Holland, New York
Current Conditions -  °F | °C
As of 5:54 AM on Monday 29 Dec 2014 (Local Time) from KBUF Reporting Station
Few Clouds Few Clouds  
Wind Chill: -7°   Ceiling: Unl
Heat Index: -3°   Visibility: 10mi
Dew Point: -6°   Wind: 7mph
Humidity: 78%   Direction: 260°W
Pressure: 30.17"   Gusts: NA
Location:  42.64°N, 78.54°W
Report Text: KBUF 291054Z 26006KT 10SM FEW030 FEW220 M03/M06 A3017 RMK AO2 SLP225 T10281061 $
Loading
Personal Weather Stations






























Interactive Weather Map New forecast layout! Learn more

10-Day Weather Forecast

Advertisements
Track Severe Weather on mobile